sensor_id;sensor_type;location;lat;lon;timestamp;temperature;humidity
25058;DHT22;13057;50.978;11.034;2023-04-01T00:00:58;11.10;99.90
25058;DHT22;13057;50.978;11.034;2023-04-01T00:03:25;11.10;99.90
25058;DHT22;13057;50.978;11.034;2023-04-01T00:05:54;11.10;99.90
25058;DHT22;13057;50.978;11.034;2023-04-01T00:08:20;11.10;99.90
25058;DHT22;13057;50.978;11.034;2023-04-01T00:10:46;11.10;99.90
25058;DHT22;13057;50.978;11.034;2023-04-01T00:13:13;11.10;99.90
25058;DHT22;13057;50.978;11.034;2023-04-01T00:15:40;11.10;99.90
25058;DHT22;13057;50.978;11.034;2023-04-01T00:18:06;11.10;99.90
25058;DHT22;13057;50.978;11.034;2023-04-01T00:20:33;11.10;99.90
25058;DHT22;13057;50.978;11.034;2023-04-01T00:22:59;11.10;99.90
25058;DHT22;13057;50.978;11.034;2023-04-01T00:25:24;11.10;99.90
25058;DHT22;13057;50.978;11.034;2023-04-01T00:27:50;11.10;99.90
25058;DHT22;13057;50.978;11.034;2023-04-01T00:30:17;11.10;99.90
25058;DHT22;13057;50.978;11.034;2023-04-01T00:32:43;11.10;99.90
25058;DHT22;13057;50.978;11.034;2023-04-01T00:35:09;11.10;99.90
25058;DHT22;13057;50.978;11.034;2023-04-01T00:37:36;11.10;99.90
25058;DHT22;13057;50.978;11.034;2023-04-01T00:40:04;11.10;99.90
25058;DHT22;13057;50.978;11.034;2023-04-01T00:42:34;11.10;99.90
25058;DHT22;13057;50.978;11.034;2023-04-01T00:45:23;11.10;99.90
25058;DHT22;13057;50.978;11.034;2023-04-01T00:47:50;11.10;99.90
25058;DHT22;13057;50.978;11.034;2023-04-01T00:50:16;11.10;99.90
25058;DHT22;13057;50.978;11.034;2023-04-01T00:52:42;11.10;99.90
25058;DHT22;13057;50.978;11.034;2023-04-01T00:55:11;11.10;99.90
25058;DHT22;13057;50.978;11.034;2023-04-01T00:57:41;11.10;99.90
25058;DHT22;13057;50.978;11.034;2023-04-01T01:00:10;11.10;99.90
25058;DHT22;13057;50.978;11.034;2023-04-01T01:02:38;11.10;99.90
25058;DHT22;13057;50.978;11.034;2023-04-01T01:05:06;11.10;99.90
25058;DHT22;13057;50.978;11.034;2023-04-01T01:07:42;11.10;99.90
25058;DHT22;13057;50.978;11.034;2023-04-01T01:10:18;11.10;99.90
25058;DHT22;13057;50.978;11.034;2023-04-01T01:12:51;11.10;99.90
25058;DHT22;13057;50.978;11.034;2023-04-01T01:15:36;11.10;99.90
25058;DHT22;13057;50.978;11.034;2023-04-01T01:18:10;11.10;99.90
25058;DHT22;13057;50.978;11.034;2023-04-01T01:23:49;11.10;99.90
25058;DHT22;13057;50.978;11.034;2023-04-01T01:26:40;11.10;99.90
25058;DHT22;13057;50.978;11.034;2023-04-01T01:29:36;11.10;99.90
25058;DHT22;13057;50.978;11.034;2023-04-01T01:35:22;11.10;99.90
25058;DHT22;13057;50.978;11.034;2023-04-01T01:37:54;11.10;99.90
25058;DHT22;13057;50.978;11.034;2023-04-01T01:40:22;11.00;99.90
25058;DHT22;13057;50.978;11.034;2023-04-01T01:42:50;11.00;99.90
25058;DHT22;13057;50.978;11.034;2023-04-01T01:45:20;11.00;99.90
25058;DHT22;13057;50.978;11.034;2023-04-01T01:47:49;11.00;99.90
25058;DHT22;13057;50.978;11.034;2023-04-01T01:50:17;11.00;99.90
25058;DHT22;13057;50.978;11.034;2023-04-01T01:52:43;11.10;99.90
25058;DHT22;13057;50.978;11.034;2023-04-01T01:55:23;11.10;99.90
25058;DHT22;13057;50.978;11.034;2023-04-01T01:57:51;11.10;99.90
25058;DHT22;13057;50.978;11.034;2023-04-01T02:00:18;11.10;99.90
25058;DHT22;13057;50.978;11.034;2023-04-01T02:02:46;11.00;99.90
25058;DHT22;13057;50.978;11.034;2023-04-01T02:05:16;11.00;99.90
25058;DHT22;13057;50.978;11.034;2023-04-01T02:07:46;11.00;99.90
25058;DHT22;13057;50.978;11.034;2023-04-01T02:10:14;11.00;99.90
25058;DHT22;13057;50.978;11.034;2023-04-01T02:12:42;11.00;99.90
25058;DHT22;13057;50.978;11.034;2023-04-01T02:15:12;11.00;99.90
25058;DHT22;13057;50.978;11.034;2023-04-01T02:17:43;11.00;99.90
25058;DHT22;13057;50.978;11.034;2023-04-01T02:20:15;11.00;99.90
25058;DHT22;13057;50.978;11.034;2023-04-01T02:22:47;11.00;99.90
25058;DHT22;13057;50.978;11.034;2023-04-01T02:25:18;11.00;99.90
25058;DHT22;13057;50.978;11.034;2023-04-01T02:27:45;11.00;99.90
25058;DHT22;13057;50.978;11.034;2023-04-01T02:30:15;11.00;99.90
25058;DHT22;13057;50.978;11.034;2023-04-01T02:32:42;11.00;99.90
25058;DHT22;13057;50.978;11.034;2023-04-01T02:35:10;11.00;99.90
25058;DHT22;13057;50.978;11.034;2023-04-01T02:37:37;11.00;99.90
25058;DHT22;13057;50.978;11.034;2023-04-01T02:40:06;10.90;99.90
25058;DHT22;13057;50.978;11.034;2023-04-01T02:42:33;10.90;99.90
25058;DHT22;13057;50.978;11.034;2023-04-01T02:44:59;10.90;99.90
25058;DHT22;13057;50.978;11.034;2023-04-01T02:47:25;10.90;99.90
25058;DHT22;13057;50.978;11.034;2023-04-01T02:49:52;10.90;99.90
25058;DHT22;13057;50.978;11.034;2023-04-01T02:52:25;10.90;99.90
25058;DHT22;13057;50.978;11.034;2023-04-01T02:54:51;10.90;99.90
25058;DHT22;13057;50.978;11.034;2023-04-01T02:57:16;10.90;99.90
25058;DHT22;13057;50.978;11.034;2023-04-01T02:59:42;10.90;99.90
25058;DHT22;13057;50.978;11.034;2023-04-01T03:02:08;10.90;99.90
25058;DHT22;13057;50.978;11.034;2023-04-01T03:04:34;10.90;99.90
25058;DHT22;13057;50.978;11.034;2023-04-01T03:07:01;10.80;99.90
25058;DHT22;13057;50.978;11.034;2023-04-01T03:09:27;10.80;99.90
25058;DHT22;13057;50.978;11.034;2023-04-01T03:11:54;10.80;99.90
25058;DHT22;13057;50.978;11.034;2023-04-01T03:14:20;10.80;99.90
25058;DHT22;13057;50.978;11.034;2023-04-01T03:16:47;10.80;99.90
25058;DHT22;13057;50.978;11.034;2023-04-01T03:19:13;10.80;99.90
25058;DHT22;13057;50.978;11.034;2023-04-01T03:21:40;10.80;99.90
25058;DHT22;13057;50.978;11.034;2023-04-01T03:24:06;10.80;99.90
25058;DHT22;13057;50.978;11.034;2023-04-01T03:26:33;10.80;99.90
25058;DHT22;13057;50.978;11.034;2023-04-01T03:28:59;10.80;99.90
25058;DHT22;13057;50.978;11.034;2023-04-01T03:31:25;10.80;99.90
25058;DHT22;13057;50.978;11.034;2023-04-01T03:33:51;10.70;99.90
25058;DHT22;13057;50.978;11.034;2023-04-01T03:36:17;10.70;99.90
25058;DHT22;13057;50.978;11.034;2023-04-01T03:38:44;10.70;99.90
25058;DHT22;13057;50.978;11.034;2023-04-01T03:41:14;10.70;99.90
25058;DHT22;13057;50.978;11.034;2023-04-01T03:43:41;10.70;99.90
25058;DHT22;13057;50.978;11.034;2023-04-01T03:46:07;10.70;99.90
25058;DHT22;13057;50.978;11.034;2023-04-01T03:48:33;10.70;99.90
25058;DHT22;13057;50.978;11.034;2023-04-01T03:50:59;10.70;99.90
25058;DHT22;13057;50.978;11.034;2023-04-01T03:53:24;10.70;99.90
25058;DHT22;13057;50.978;11.034;2023-04-01T03:55:50;10.70;99.90
25058;DHT22;13057;50.978;11.034;2023-04-01T03:58:16;10.70;99.90
25058;DHT22;13057;50.978;11.034;2023-04-01T04:00:42;10.60;99.90
25058;DHT22;13057;50.978;11.034;2023-04-01T04:03:08;10.60;99.90
25058;DHT22;13057;50.978;11.034;2023-04-01T04:05:34;10.60;99.90
25058;DHT22;13057;50.978;11.034;2023-04-01T04:08:00;10.60;99.90
25058;DHT22;13057;50.978;11.034;2023-04-01T04:10:26;10.60;99.90
25058;DHT22;13057;50.978;11.034;2023-04-01T04:12:52;10.60;99.90
25058;DHT22;13057;50.978;11.034;2023-04-01T04:15:18;10.60;99.90
25058;DHT22;13057;50.978;11.034;2023-04-01T04:17:45;10.60;99.90
25058;DHT22;13057;50.978;11.034;2023-04-01T04:20:11;10.60;99.90
25058;DHT22;13057;50.978;11.034;2023-04-01T04:22:37;10.60;99.90
25058;DHT22;13057;50.978;11.034;2023-04-01T04:25:03;10.60;99.90
25058;DHT22;13057;50.978;11.034;2023-04-01T04:27:29;10.60;99.90
25058;DHT22;13057;50.978;11.034;2023-04-01T04:29:55;10.60;99.90
25058;DHT22;13057;50.978;11.034;2023-04-01T04:32:21;10.60;99.90
25058;DHT22;13057;50.978;11.034;2023-04-01T04:34:47;10.60;99.90
25058;DHT22;13057;50.978;11.034;2023-04-01T04:37:13;10.50;99.90
25058;DHT22;13057;50.978;11.034;2023-04-01T04:39:39;10.50;99.90
25058;DHT22;13057;50.978;11.034;2023-04-01T04:42:05;10.50;99.90
25058;DHT22;13057;50.978;11.034;2023-04-01T04:44:31;10.50;99.90
25058;DHT22;13057;50.978;11.034;2023-04-01T04:46:57;10.50;99.90
25058;DHT22;13057;50.978;11.034;2023-04-01T04:49:23;10.50;99.90
25058;DHT22;13057;50.978;11.034;2023-04-01T04:51:49;10.50;99.90
25058;DHT22;13057;50.978;11.034;2023-04-01T04:54:15;10.50;99.90
25058;DHT22;13057;50.978;11.034;2023-04-01T04:56:41;10.50;99.90
25058;DHT22;13057;50.978;11.034;2023-04-01T04:59:07;10.50;99.90
25058;DHT22;13057;50.978;11.034;2023-04-01T05:01:33;10.50;99.90
25058;DHT22;13057;50.978;11.034;2023-04-01T05:03:59;10.60;99.90
25058;DHT22;13057;50.978;11.034;2023-04-01T05:06:25;10.60;99.90
25058;DHT22;13057;50.978;11.034;2023-04-01T05:08:55;10.60;99.90
25058;DHT22;13057;50.978;11.034;2023-04-01T05:11:21;10.60;99.90
25058;DHT22;13057;50.978;11.034;2023-04-01T05:13:47;10.60;99.90
25058;DHT22;13057;50.978;11.034;2023-04-01T05:16:16;10.60;99.90
25058;DHT22;13057;50.978;11.034;2023-04-01T05:18:42;10.60;99.90
25058;DHT22;13057;50.978;11.034;2023-04-01T05:21:10;10.60;99.90
25058;DHT22;13057;50.978;11.034;2023-04-01T05:23:37;10.60;99.90
25058;DHT22;13057;50.978;11.034;2023-04-01T05:26:05;10.60;99.90
25058;DHT22;13057;50.978;11.034;2023-04-01T05:28:31;10.60;99.90
25058;DHT22;13057;50.978;11.034;2023-04-01T05:30:59;10.60;99.90
25058;DHT22;13057;50.978;11.034;2023-04-01T05:33:27;10.60;99.90
25058;DHT22;13057;50.978;11.034;2023-04-01T05:35:53;10.60;99.90
25058;DHT22;13057;50.978;11.034;2023-04-01T05:38:19;10.60;99.90
25058;DHT22;13057;50.978;11.034;2023-04-01T05:40:48;10.60;99.90
25058;DHT22;13057;50.978;11.034;2023-04-01T05:43:14;10.60;99.90
25058;DHT22;13057;50.978;11.034;2023-04-01T05:45:40;10.60;99.90
25058;DHT22;13057;50.978;11.034;2023-04-01T05:48:06;10.60;99.90
25058;DHT22;13057;50.978;11.034;2023-04-01T05:50:32;10.60;99.90
25058;DHT22;13057;50.978;11.034;2023-04-01T05:52:58;10.50;99.90
25058;DHT22;13057;50.978;11.034;2023-04-01T05:55:24;10.50;99.90
25058;DHT22;13057;50.978;11.034;2023-04-01T05:57:49;10.50;99.90
25058;DHT22;13057;50.978;11.034;2023-04-01T06:00:17;10.50;99.90
25058;DHT22;13057;50.978;11.034;2023-04-01T06:02:44;10.50;99.90
25058;DHT22;13057;50.978;11.034;2023-04-01T06:05:18;10.50;99.90
25058;DHT22;13057;50.978;11.034;2023-04-01T06:07:44;10.50;99.90
25058;DHT22;13057;50.978;11.034;2023-04-01T06:10:14;10.60;99.90
25058;DHT22;13057;50.978;11.034;2023-04-01T06:12:57;10.60;99.90
25058;DHT22;13057;50.978;11.034;2023-04-01T06:15:38;10.70;99.90
25058;DHT22;13057;50.978;11.034;2023-04-01T06:18:34;10.70;99.90
25058;DHT22;13057;50.978;11.034;2023-04-01T06:21:28;10.80;99.90
25058;DHT22;13057;50.978;11.034;2023-04-01T06:24:26;10.80;99.90
25058;DHT22;13057;50.978;11.034;2023-04-01T06:27:07;10.90;99.90
25058;DHT22;13057;50.978;11.034;2023-04-01T06:29:57;11.00;99.90
25058;DHT22;13057;50.978;11.034;2023-04-01T06:32:46;11.00;99.90
25058;DHT22;13057;50.978;11.034;2023-04-01T06:35:22;11.10;99.90
25058;DHT22;13057;50.978;11.034;2023-04-01T06:38:13;11.20;99.90
25058;DHT22;13057;50.978;11.034;2023-04-01T06:41:16;11.20;99.90
25058;DHT22;13057;50.978;11.034;2023-04-01T06:43:59;11.30;99.90
25058;DHT22;13057;50.978;11.034;2023-04-01T06:46:45;11.40;99.90
25058;DHT22;13057;50.978;11.034;2023-04-01T06:49:32;11.40;99.90
25058;DHT22;13057;50.978;11.034;2023-04-01T06:52:10;11.50;99.90
25058;DHT22;13057;50.978;11.034;2023-04-01T06:54:48;11.60;99.90
25058;DHT22;13057;50.978;11.034;2023-04-01T06:57:24;11.60;99.90
25058;DHT22;13057;50.978;11.034;2023-04-01T06:59:55;11.70;99.90
25058;DHT22;13057;50.978;11.034;2023-04-01T07:02:41;11.80;99.90
25058;DHT22;13057;50.978;11.034;2023-04-01T07:05:08;11.80;99.90
25058;DHT22;13057;50.978;11.034;2023-04-01T07:07:42;11.80;99.90
25058;DHT22;13057;50.978;11.034;2023-04-01T07:10:14;11.80;99.90
25058;DHT22;13057;50.978;11.034;2023-04-01T07:12:47;11.90;99.90
25058;DHT22;13057;50.978;11.034;2023-04-01T07:15:28;11.90;99.90
25058;DHT22;13057;50.978;11.034;2023-04-01T07:18:02;12.00;99.90
25058;DHT22;13057;50.978;11.034;2023-04-01T07:20:32;12.00;99.90
25058;DHT22;13057;50.978;11.034;2023-04-01T07:23:04;12.10;99.90
25058;DHT22;13057;50.978;11.034;2023-04-01T07:25:39;12.10;99.90
25058;DHT22;13057;50.978;11.034;2023-04-01T07:28:12;12.10;99.90
25058;DHT22;13057;50.978;11.034;2023-04-01T07:31:04;12.10;99.90
25058;DHT22;13057;50.978;11.034;2023-04-01T07:33:39;12.20;99.90
25058;DHT22;13057;50.978;11.034;2023-04-01T07:36:16;12.10;99.90
25058;DHT22;13057;50.978;11.034;2023-04-01T07:38:58;12.10;99.90
25058;DHT22;13057;50.978;11.034;2023-04-01T07:41:49;12.10;99.90
25058;DHT22;13057;50.978;11.034;2023-04-01T07:44:37;12.00;99.90
25058;DHT22;13057;50.978;11.034;2023-04-01T07:47:16;12.00;99.90
25058;DHT22;13057;50.978;11.034;2023-04-01T07:50:09;12.00;99.90
25058;DHT22;13057;50.978;11.034;2023-04-01T07:52:53;12.00;99.90
25058;DHT22;13057;50.978;11.034;2023-04-01T07:55:30;12.00;99.90
25058;DHT22;13057;50.978;11.034;2023-04-01T07:58:18;12.00;99.90
25058;DHT22;13057;50.978;11.034;2023-04-01T08:00:59;12.00;99.90
25058;DHT22;13057;50.978;11.034;2023-04-01T08:03:38;12.00;99.90
25058;DHT22;13057;50.978;11.034;2023-04-01T08:06:27;12.10;99.90
25058;DHT22;13057;50.978;11.034;2023-04-01T08:09:08;12.30;99.90
25058;DHT22;13057;50.978;11.034;2023-04-01T08:11:53;12.30;99.90
25058;DHT22;13057;50.978;11.034;2023-04-01T08:14:50;12.30;99.90
25058;DHT22;13057;50.978;11.034;2023-04-01T08:17:32;12.40;99.90
25058;DHT22;13057;50.978;11.034;2023-04-01T08:20:18;12.40;99.90
25058;DHT22;13057;50.978;11.034;2023-04-01T08:22:52;12.50;99.90
25058;DHT22;13057;50.978;11.034;2023-04-01T08:25:24;12.50;99.90
25058;DHT22;13057;50.978;11.034;2023-04-01T08:27:56;12.60;99.90
25058;DHT22;13057;50.978;11.034;2023-04-01T08:30:28;12.60;99.90
25058;DHT22;13057;50.978;11.034;2023-04-01T08:33:08;12.50;99.90
25058;DHT22;13057;50.978;11.034;2023-04-01T08:35:46;12.50;99.90
25058;DHT22;13057;50.978;11.034;2023-04-01T08:38:27;12.60;99.90
25058;DHT22;13057;50.978;11.034;2023-04-01T08:41:00;12.60;99.90
25058;DHT22;13057;50.978;11.034;2023-04-01T08:43:53;12.60;99.90
25058;DHT22;13057;50.978;11.034;2023-04-01T08:46:46;12.70;99.90
25058;DHT22;13057;50.978;11.034;2023-04-01T08:49:56;12.70;99.90
25058;DHT22;13057;50.978;11.034;2023-04-01T08:52:40;12.70;99.90
25058;DHT22;13057;50.978;11.034;2023-04-01T08:55:32;12.80;99.90
25058;DHT22;13057;50.978;11.034;2023-04-01T08:58:20;12.80;99.90
25058;DHT22;13057;50.978;11.034;2023-04-01T09:00:54;12.80;99.90
25058;DHT22;13057;50.978;11.034;2023-04-01T09:03:37;12.80;99.90
25058;DHT22;13057;50.978;11.034;2023-04-01T09:06:29;12.80;99.90
25058;DHT22;13057;50.978;11.034;2023-04-01T09:09:19;12.80;99.90
25058;DHT22;13057;50.978;11.034;2023-04-01T09:12:14;12.80;99.90
25058;DHT22;13057;50.978;11.034;2023-04-01T09:18:01;12.90;99.90
25058;DHT22;13057;50.978;11.034;2023-04-01T09:20:52;12.90;99.90
25058;DHT22;13057;50.978;11.034;2023-04-01T09:23:40;13.00;99.90
25058;DHT22;13057;50.978;11.034;2023-04-01T09:29:38;13.00;99.90
25058;DHT22;13057;50.978;11.034;2023-04-01T09:35:23;12.90;99.90
25058;DHT22;13057;50.978;11.034;2023-04-01T09:38:03;12.90;99.90
25058;DHT22;13057;50.978;11.034;2023-04-01T09:40:54;13.00;99.90
25058;DHT22;13057;50.978;11.034;2023-04-01T09:46:26;13.10;99.90
25058;DHT22;13057;50.978;11.034;2023-04-01T09:49:16;13.10;99.90
25058;DHT22;13057;50.978;11.034;2023-04-01T09:54:59;13.10;99.90
25058;DHT22;13057;50.978;11.034;2023-04-01T10:01:05;13.20;99.90
25058;DHT22;13057;50.978;11.034;2023-04-01T10:04:04;13.20;99.90
25058;DHT22;13057;50.978;11.034;2023-04-01T10:06:58;13.10;99.90
25058;DHT22;13057;50.978;11.034;2023-04-01T10:09:56;13.10;99.90
25058;DHT22;13057;50.978;11.034;2023-04-01T10:12:56;13.10;99.90
25058;DHT22;13057;50.978;11.034;2023-04-01T10:15:55;13.20;99.90
25058;DHT22;13057;50.978;11.034;2023-04-01T10:18:49;13.20;99.90
25058;DHT22;13057;50.978;11.034;2023-04-01T10:27:39;13.30;99.90
25058;DHT22;13057;50.978;11.034;2023-04-01T10:30:26;13.40;99.90
25058;DHT22;13057;50.978;11.034;2023-04-01T10:33:19;13.40;99.90
25058;DHT22;13057;50.978;11.034;2023-04-01T10:36:05;13.30;99.90
25058;DHT22;13057;50.978;11.034;2023-04-01T10:39:02;13.30;99.90
25058;DHT22;13057;50.978;11.034;2023-04-01T10:41:56;13.30;99.90
25058;DHT22;13057;50.978;11.034;2023-04-01T10:44:58;13.30;99.90
25058;DHT22;13057;50.978;11.034;2023-04-01T10:47:53;13.30;99.90
25058;DHT22;13057;50.978;11.034;2023-04-01T10:50:45;13.40;99.90
25058;DHT22;13057;50.978;11.034;2023-04-01T10:53:31;13.40;99.90
25058;DHT22;13057;50.978;11.034;2023-04-01T10:59:14;13.40;99.90
25058;DHT22;13057;50.978;11.034;2023-04-01T11:02:12;13.50;99.90
25058;DHT22;13057;50.978;11.034;2023-04-01T11:07:51;13.60;99.90
25058;DHT22;13057;50.978;11.034;2023-04-01T11:13:50;13.50;99.90
25058;DHT22;13057;50.978;11.034;2023-04-01T11:16:40;13.50;99.90
25058;DHT22;13057;50.978;11.034;2023-04-01T11:22:20;13.50;99.90
25058;DHT22;13057;50.978;11.034;2023-04-01T11:24:57;13.50;99.90
25058;DHT22;13057;50.978;11.034;2023-04-01T11:27:41;13.40;99.90
25058;DHT22;13057;50.978;11.034;2023-04-01T11:33:05;13.50;99.90
25058;DHT22;13057;50.978;11.034;2023-04-01T11:35:52;13.50;99.90
25058;DHT22;13057;50.978;11.034;2023-04-01T11:41:24;13.50;99.90
25058;DHT22;13057;50.978;11.034;2023-04-01T11:44:11;13.50;99.90
25058;DHT22;13057;50.978;11.034;2023-04-01T11:46:54;13.60;99.90
25058;DHT22;13057;50.978;11.034;2023-04-01T11:49:40;13.60;99.90
25058;DHT22;13057;50.978;11.034;2023-04-01T11:52:25;13.60;99.90
25058;DHT22;13057;50.978;11.034;2023-04-01T11:55:15;13.70;99.90
25058;DHT22;13057;50.978;11.034;2023-04-01T11:58:02;13.70;99.90
25058;DHT22;13057;50.978;11.034;2023-04-01T12:00:44;13.60;99.90
25058;DHT22;13057;50.978;11.034;2023-04-01T12:03:37;13.60;99.90
25058;DHT22;13057;50.978;11.034;2023-04-01T12:06:28;13.60;99.90
25058;DHT22;13057;50.978;11.034;2023-04-01T12:11:52;13.60;99.90
25058;DHT22;13057;50.978;11.034;2023-04-01T12:14:39;13.60;99.90
25058;DHT22;13057;50.978;11.034;2023-04-01T12:17:25;13.60;99.90
25058;DHT22;13057;50.978;11.034;2023-04-01T12:20:20;13.70;99.90
25058;DHT22;13057;50.978;11.034;2023-04-01T12:23:07;13.70;99.90
25058;DHT22;13057;50.978;11.034;2023-04-01T12:25:59;13.80;99.90
25058;DHT22;13057;50.978;11.034;2023-04-01T12:28:43;13.80;99.90
25058;DHT22;13057;50.978;11.034;2023-04-01T12:31:21;13.90;99.90
25058;DHT22;13057;50.978;11.034;2023-04-01T12:34:01;14.00;99.90
25058;DHT22;13057;50.978;11.034;2023-04-01T12:36:45;14.00;99.90
25058;DHT22;13057;50.978;11.034;2023-04-01T12:39:42;14.00;99.90
25058;DHT22;13057;50.978;11.034;2023-04-01T12:42:21;14.00;99.90
25058;DHT22;13057;50.978;11.034;2023-04-01T12:48:01;13.90;99.90
25058;DHT22;13057;50.978;11.034;2023-04-01T12:50:45;13.90;99.90
25058;DHT22;13057;50.978;11.034;2023-04-01T12:53:33;13.80;99.90
25058;DHT22;13057;50.978;11.034;2023-04-01T12:56:03;13.80;99.90
25058;DHT22;13057;50.978;11.034;2023-04-01T12:58:50;13.80;99.90
25058;DHT22;13057;50.978;11.034;2023-04-01T13:01:28;13.80;99.90
25058;DHT22;13057;50.978;11.034;2023-04-01T13:04:36;13.80;99.90
25058;DHT22;13057;50.978;11.034;2023-04-01T13:07:29;13.90;99.90
25058;DHT22;13057;50.978;11.034;2023-04-01T13:10:15;13.90;99.90
25058;DHT22;13057;50.978;11.034;2023-04-01T13:13:00;13.90;99.90
25058;DHT22;13057;50.978;11.034;2023-04-01T13:15:45;14.00;99.90
25058;DHT22;13057;50.978;11.034;2023-04-01T13:18:29;14.00;99.90
25058;DHT22;13057;50.978;11.034;2023-04-01T13:21:13;14.00;99.90
25058;DHT22;13057;50.978;11.034;2023-04-01T13:23:54;14.10;99.90
25058;DHT22;13057;50.978;11.034;2023-04-01T13:26:41;14.00;99.90
25058;DHT22;13057;50.978;11.034;2023-04-01T13:32:24;14.00;99.90
25058;DHT22;13057;50.978;11.034;2023-04-01T13:35:14;14.00;99.90
25058;DHT22;13057;50.978;11.034;2023-04-01T13:38:06;14.00;99.90
25058;DHT22;13057;50.978;11.034;2023-04-01T13:40:54;14.00;99.90
25058;DHT22;13057;50.978;11.034;2023-04-01T13:43:29;14.00;99.90
25058;DHT22;13057;50.978;11.034;2023-04-01T13:46:19;14.00;99.90
25058;DHT22;13057;50.978;11.034;2023-04-01T13:49:19;14.00;99.90
25058;DHT22;13057;50.978;11.034;2023-04-01T13:52:02;13.90;99.90
25058;DHT22;13057;50.978;11.034;2023-04-01T13:57:52;13.90;99.90
25058;DHT22;13057;50.978;11.034;2023-04-01T14:00:42;13.90;99.90
25058;DHT22;13057;50.978;11.034;2023-04-01T14:06:23;13.90;99.90
25058;DHT22;13057;50.978;11.034;2023-04-01T14:09:11;13.90;99.90
25058;DHT22;13057;50.978;11.034;2023-04-01T14:11:55;14.00;99.90
25058;DHT22;13057;50.978;11.034;2023-04-01T14:14:43;14.00;99.90
25058;DHT22;13057;50.978;11.034;2023-04-01T14:25:46;14.10;99.90
25058;DHT22;13057;50.978;11.034;2023-04-01T14:28:29;14.10;99.90
25058;DHT22;13057;50.978;11.034;2023-04-01T14:31:27;14.10;99.90
25058;DHT22;13057;50.978;11.034;2023-04-01T14:34:22;14.10;99.90
25058;DHT22;13057;50.978;11.034;2023-04-01T14:37:10;14.10;99.90
25058;DHT22;13057;50.978;11.034;2023-04-01T14:39:59;14.00;99.90
25058;DHT22;13057;50.978;11.034;2023-04-01T14:42:59;14.00;99.90
25058;DHT22;13057;50.978;11.034;2023-04-01T14:45:44;14.00;99.90
25058;DHT22;13057;50.978;11.034;2023-04-01T14:48:28;14.00;99.90
25058;DHT22;13057;50.978;11.034;2023-04-01T14:51:08;14.00;99.90
25058;DHT22;13057;50.978;11.034;2023-04-01T14:53:38;14.10;99.90
25058;DHT22;13057;50.978;11.034;2023-04-01T14:56:09;14.10;99.90
25058;DHT22;13057;50.978;11.034;2023-04-01T14:58:46;14.10;99.90
25058;DHT22;13057;50.978;11.034;2023-04-01T15:01:37;14.00;99.90
25058;DHT22;13057;50.978;11.034;2023-04-01T15:04:37;14.00;99.90
25058;DHT22;13057;50.978;11.034;2023-04-01T15:07:35;13.90;99.90
25058;DHT22;13057;50.978;11.034;2023-04-01T15:10:28;13.70;99.90
25058;DHT22;13057;50.978;11.034;2023-04-01T15:16:09;13.60;99.90
25058;DHT22;13057;50.978;11.034;2023-04-01T15:18:56;13.60;99.90
25058;DHT22;13057;50.978;11.034;2023-04-01T15:21:39;13.60;99.90
25058;DHT22;13057;50.978;11.034;2023-04-01T15:24:24;13.50;99.90
25058;DHT22;13057;50.978;11.034;2023-04-01T15:26:59;13.50;99.90
25058;DHT22;13057;50.978;11.034;2023-04-01T15:29:41;13.50;99.90
25058;DHT22;13057;50.978;11.034;2023-04-01T15:32:24;13.50;99.90
25058;DHT22;13057;50.978;11.034;2023-04-01T15:35:06;13.50;99.90
25058;DHT22;13057;50.978;11.034;2023-04-01T15:37:40;13.50;99.90
25058;DHT22;13057;50.978;11.034;2023-04-01T15:40:24;13.50;99.90
25058;DHT22;13057;50.978;11.034;2023-04-01T15:43:06;13.50;99.90
25058;DHT22;13057;50.978;11.034;2023-04-01T15:45:51;13.50;99.90
25058;DHT22;13057;50.978;11.034;2023-04-01T15:48:34;13.50;99.90
25058;DHT22;13057;50.978;11.034;2023-04-01T15:51:11;13.50;99.90
25058;DHT22;13057;50.978;11.034;2023-04-01T15:54:02;13.50;99.90
25058;DHT22;13057;50.978;11.034;2023-04-01T15:56:53;13.50;99.90
25058;DHT22;13057;50.978;11.034;2023-04-01T15:59:53;13.40;99.90
25058;DHT22;13057;50.978;11.034;2023-04-01T16:02:34;13.40;99.90
25058;DHT22;13057;50.978;11.034;2023-04-01T16:10:44;13.30;99.90
25058;DHT22;13057;50.978;11.034;2023-04-01T16:13:28;13.20;99.90
25058;DHT22;13057;50.978;11.034;2023-04-01T16:16:06;13.20;99.90
25058;DHT22;13057;50.978;11.034;2023-04-01T16:18:52;13.30;99.90
25058;DHT22;13057;50.978;11.034;2023-04-01T16:21:36;13.20;99.90
25058;DHT22;13057;50.978;11.034;2023-04-01T16:24:22;13.20;99.90
25058;DHT22;13057;50.978;11.034;2023-04-01T16:26:55;13.10;99.90
25058;DHT22;13057;50.978;11.034;2023-04-01T16:29:32;13.10;99.90
25058;DHT22;13057;50.978;11.034;2023-04-01T16:32:26;13.00;99.90
25058;DHT22;13057;50.978;11.034;2023-04-01T16:37:45;12.90;99.90
25058;DHT22;13057;50.978;11.034;2023-04-01T16:40:33;12.90;99.90
25058;DHT22;13057;50.978;11.034;2023-04-01T16:43:23;12.90;99.90
25058;DHT22;13057;50.978;11.034;2023-04-01T16:46:27;12.90;99.90
25058;DHT22;13057;50.978;11.034;2023-04-01T16:51:41;12.80;99.90
25058;DHT22;13057;50.978;11.034;2023-04-01T16:54:28;12.70;99.90
25058;DHT22;13057;50.978;11.034;2023-04-01T16:59:44;12.70;99.90
25058;DHT22;13057;50.978;11.034;2023-04-01T17:02:14;12.60;99.90
25058;DHT22;13057;50.978;11.034;2023-04-01T17:04:48;12.60;99.90
25058;DHT22;13057;50.978;11.034;2023-04-01T17:07:43;12.50;99.90
25058;DHT22;13057;50.978;11.034;2023-04-01T17:10:31;12.50;99.90
25058;DHT22;13057;50.978;11.034;2023-04-01T17:13:19;12.50;99.90
25058;DHT22;13057;50.978;11.034;2023-04-01T17:16:10;12.40;99.90
25058;DHT22;13057;50.978;11.034;2023-04-01T17:18:59;12.40;99.90
25058;DHT22;13057;50.978;11.034;2023-04-01T17:22:03;12.40;99.90
25058;DHT22;13057;50.978;11.034;2023-04-01T17:24:46;12.40;99.90
25058;DHT22;13057;50.978;11.034;2023-04-01T17:27:34;12.30;99.90
25058;DHT22;13057;50.978;11.034;2023-04-01T17:33:20;12.20;99.90
25058;DHT22;13057;50.978;11.034;2023-04-01T17:36:05;12.20;99.90
25058;DHT22;13057;50.978;11.034;2023-04-01T17:39:12;12.20;99.90
25058;DHT22;13057;50.978;11.034;2023-04-01T17:41:42;12.20;99.90
25058;DHT22;13057;50.978;11.034;2023-04-01T17:47:18;12.10;99.90
25058;DHT22;13057;50.978;11.034;2023-04-01T17:53:03;12.10;99.90
25058;DHT22;13057;50.978;11.034;2023-04-01T17:55:46;12.10;99.90
25058;DHT22;13057;50.978;11.034;2023-04-01T17:58:21;12.00;99.90
25058;DHT22;13057;50.978;11.034;2023-04-01T18:01:02;12.00;99.90